Latest Weather Observations for Holsworthy

IDN60901

Issued at 9:11 pm EDT Sunday 22 January 2017 (issued every 10 minutes, with the page automatically refreshed every 10 minutes)

About weather observations | Map of Sydney area stations | Latest observations for Sydney area | Other Formats
Station Details ID: 066161 Name: HOLSWORTHY AERODROME AWS Lat: -33.99 Lon: 150.95 Height: 68.16 m
Data from the previous 72 hours. | See also: Recent months at Holsworthy
Date/Time
EDT
Temp
°C
App
Temp
°C
Dew
Point
°C
Rel
Hum
%
Delta-T
°C
Wind Press
QNH
hPa
Press
MSL
hPa
Rain since
9am
mm
Dir  Spd
km/h
Gust
km/h
Spd
kts
Gust
kts
22/09:00pm 22.5 21.7 16.1 67 3.9 NE 15 26 8 14 1015.5 1015.2 0.0
22/08:30pm 22.7 22.2 15.8 65 4.2 NE 13 22 7 12 1015.4 1015.1 0.0
22/08:00pm 23.1 21.9 16.2 65 4.2 ENE 17 24 9 13 1015.2 1014.9 0.0
22/07:30pm 23.6 21.8 15.6 61 4.8 ENE 19 30 10 16 1015.0 1014.6 0.0
22/07:00pm 24.6 23.2 15.5 57 5.5 ENE 17 24 9 13 1014.8 1014.4 0.0
22/06:30pm 24.9 22.7 15.0 54 6.0 ENE 20 32 11 17 1014.5 1014.1 0.0
22/06:00pm 25.4 22.3 14.5 51 6.5 E 24 32 13 17 1014.2 1013.9 0.0
22/05:30pm 26.0 23.4 14.8 50 6.7 E 22 32 12 17 1014.2 1013.9 0.0
22/05:00pm 26.5 24.4 15.2 49 6.9 ENE 20 32 11 17 1014.5 1014.1 0.0
22/04:30pm 26.7 24.6 15.1 49 7.0 ENE 20 28 11 15 1014.7 1014.3 0.0
22/04:00pm 27.0 25.4 16.0 51 6.8 ENE 19 32 10 17 1014.9 1014.5 0.0
22/03:30pm 26.9 25.1 15.6 50 6.9 NE 19 28 10 15 1015.0 1014.6 0.0
22/03:00pm 27.3 25.7 16.0 50 7.0 ESE 19 33 10 18 1015.3 1015.0 0.0
22/02:30pm 25.7 23.8 15.1 52 6.4 ESE 19 30 10 16 1015.7 1015.4 0.0
22/02:00pm 25.5 23.9 14.9 52 6.4 E 17 26 9 14 1016.0 1015.7 0.0
22/01:30pm 25.5 24.0 15.2 53 6.2 E 17 30 9 16 1016.2 1015.9 0.0
22/01:00pm 24.9 23.2 14.7 53 6.1 E 17 26 9 14 1016.6 1016.3 0.0
22/12:30pm 24.7 23.0 14.8 54 5.9 ENE 17 26 9 14 1017.0 1016.7 0.0
22/12:00pm 24.7 23.6 15.3 56 5.7 E 15 22 8 12 1017.2 1016.9 0.0
22/11:30am 23.9 22.8 14.3 55 5.7 ENE 13 22 7 12 1017.4 1017.1 0.0
22/11:00am 24.5 23.2 13.7 51 6.3 NNE 13 20 7 11 1017.5 1017.2 0.0
22/10:30am 23.7 22.2 13.0 51 6.2 NE 13 20 7 11 1017.7 1017.4 0.0
22/10:00am 23.4 22.9 13.8 54 5.6 NNW 9 17 5 9 1017.8 1017.5 0.0
22/09:30am 22.6 21.9 13.1 55 5.5 NE 9 15 5 8 1017.9 1017.6 0.0
22/09:00am 22.5 22.2 13.3 56 5.3 E 7 9 4 5 1018.1 1017.8 0.0
22/08:30am 21.2 21.6 13.6 62 4.4 WNW 4 9 2 5 1018.1 1017.8 0.0
22/08:00am 20.4 20.7 13.4 64 4.0 WSW 4 7 2 4 1018.0 1017.7 0.0
22/07:30am 19.8 19.6 13.5 67 3.6 WSW 7 9 4 5 1017.9 1017.6 0.0
22/07:00am 18.9 20.2 14.0 73 2.8 CALM 0 0 0 0 1017.6 1017.3 0.0
22/06:30am 18.8 20.2 14.5 76 2.5 CALM 0 0 0 0 1017.5 1017.2 0.0
22/06:00am 18.8 19.0 14.1 74 2.7 WSW 6 6 3 3 1017.4 1017.1 0.0
22/05:30am 18.8 19.2 13.6 72 3.0 WSW 4 6 2 3 1017.2 1016.9 0.0
22/05:00am 18.9 19.0 14.0 73 2.8 SW 6 7 3 4 1017.0 1016.7 0.0
22/04:30am 19.0 19.1 13.8 72 3.0 SW 6 7 3 4 1016.7 1016.4 0.0
22/04:00am 19.0 18.9 13.4 70 3.2 SW 6 9 3 5 1016.6 1016.3 0.0
22/03:30am 19.2 19.2 13.6 70 3.2 SW 6 7 3 4 1016.8 1016.5 0.0
22/03:00am 19.3 19.3 13.5 69 3.3 S 6 9 3 5 1016.9 1016.6 0.0
22/02:30am 19.4 19.3 13.3 68 3.5 SSE 6 9 3 5 1017.0 1016.7 0.0
22/02:00am 19.5 18.9 13.4 68 3.5 S 9 15 5 8 1017.1 1016.8 0.0
22/01:30am 19.7 19.5 13.6 68 3.5 SE 7 15 4 8 1017.3 1017.0 0.0
22/01:00am 19.8 18.9 13.7 68 3.5 SSE 11 15 6 8 1017.3 1017.0 0.0
22/12:30am 19.9 19.0 13.8 68 3.5 SSE 11 15 6 8 1017.4 1017.1 0.0
22/12:00am 20.1 19.7 14.2 69 3.4 SE 9 15 5 8 1017.5 1017.2 0.0
 
Date/Time
EDT
Temp
°C
App
Temp
°C
Dew
Point
°C
Rel
Hum
%
Delta-T
°C
Wind Press
QNH
hPa
Press
MSL
hPa
Rain since
9am
mm
Dir  Spd
km/h
Gust
km/h
Spd
kts
Gust
kts
21/11:30pm 20.2 19.1 14.3 69 3.4 SE 13 20 7 11 1017.3 1017.0 0.0
21/11:00pm 20.3 18.1 14.4 69 3.4 SE 19 24 10 13 1017.2 1016.9 0.0
21/10:30pm 20.4 18.9 14.3 68 3.6 SE 15 22 8 12 1017.1 1016.8 0.0
21/10:00pm 20.5 18.2 14.2 67 3.7 SE 19 26 10 14 1016.9 1016.6 0.0
21/09:30pm 20.6 18.8 14.5 68 3.6 SE 17 22 9 12 1016.7 1016.4 0.0
21/09:00pm 20.6 19.6 14.5 68 3.6 SE 13 15 7 8 1016.6 1016.3 0.0
21/08:30pm 20.4 19.4 14.5 69 3.4 SSE 13 20 7 11 1016.2 1015.9 0.0
21/08:00pm 20.6 18.4 14.3 67 3.7 SE 19 26 10 14 1015.7 1015.4 0.0
21/07:30pm 21.4 19.5 14.1 63 4.3 SE 17 24 9 13 1015.1 1014.8 0.0
21/07:00pm 21.8 19.2 13.7 60 4.7 SE 20 30 11 16 1014.5 1014.1 0.0
21/06:30pm 22.6 20.1 14.2 59 4.9 SE 20 26 11 14 1013.8 1013.5 0.0
21/06:00pm 22.5 19.1 13.8 58 5.1 ESE 24 32 13 17 1013.3 1013.0 0.0
21/05:30pm 23.5 20.9 13.7 54 5.7 SE 20 30 11 16 1012.9 1012.6 0.0
21/05:00pm 23.2 19.2 13.1 53 5.8 SE 26 35 14 19 1012.7 1012.4 0.0
21/04:30pm 24.1 20.7 13.6 52 6.1 SE 24 35 13 19 1012.7 1012.4 0.0
21/04:00pm 23.7 20.2 13.3 52 6.0 ESE 24 33 13 18 1012.5 1012.2 0.0
21/03:30pm 24.3 21.0 12.9 49 6.6 SE 22 30 12 16 1012.3 1012.0 0.0
21/03:00pm 24.6 21.2 12.5 46 7.0 SE 22 35 12 19 1012.0 1011.7 0.0
21/02:30pm 24.8 22.3 12.4 46 7.1 SE 17 28 9 15 1011.7 1011.4 0.0
21/02:00pm 25.4 22.5 12.9 45 7.3 SE 20 32 11 17 1011.6 1011.3 0.0
21/01:30pm 25.4 22.4 12.6 45 7.4 SE 20 28 11 15 1011.6 1011.3 0.0
21/01:00pm 24.9 21.9 12.5 46 7.2 SE 20 33 11 18 1011.5 1011.2 0.0
21/12:30pm 24.9 23.0 13.1 48 6.9 SSE 15 24 8 13 1011.7 1011.4 0.0
21/12:00pm 25.2 23.0 13.4 48 6.9 E 17 28 9 15 1011.6 1011.3 0.0
21/11:30am 23.9 21.6 11.6 46 7.0 SSE 15 26 8 14 1011.5 1011.2 0.0
21/11:00am 23.3 21.4 11.7 48 6.6 SE 13 19 7 10 1011.4 1011.1 0.0
21/10:30am 23.2 21.0 12.2 50 6.3 SSE 15 20 8 11 1011.4 1011.1 0.0
21/10:00am 22.1 19.6 10.9 49 6.2 SSE 15 19 8 10 1011.2 1010.9 0.0
21/09:30am 22.0 20.1 11.7 52 5.8 SSE 13 20 7 11 1011.0 1010.7 0.0
21/09:00am 21.5 20.0 11.8 54 5.4 SSE 11 15 6 8 1010.8 1010.5 9.6
21/08:30am 21.2 19.5 11.2 53 5.5 S 11 19 6 10 1010.4 1010.1 9.6
21/08:00am 21.0 20.2 11.1 53 5.5 SSW 6 13 3 7 1009.9 1009.6 9.6
21/07:30am 20.4 19.9 12.1 59 4.7 WSW 6 9 3 5 1009.4 1009.1 9.6
21/07:00am 20.1 19.4 12.1 60 4.5 SW 7 9 4 5 1008.8 1008.5 9.6
21/06:30am 19.9 19.0 12.7 63 4.1 SSW 9 17 5 9 1008.2 1007.9 9.6
21/06:00am 20.0 19.1 12.5 62 4.2 SSW 9 13 5 7 1007.6 1007.3 9.6
21/05:30am 20.0 19.6 13.0 64 4.0 S 7 11 4 6 1006.9 1006.6 9.6
21/05:00am 20.3 19.6 13.3 64 4.0 S 9 13 5 7 1006.6 1006.3 9.6
21/04:30am 20.5 18.9 12.7 61 4.4 SSW 13 22 7 12 1006.2 1005.9 9.6
21/04:00am 20.6 19.9 13.3 63 4.2 SW 9 15 5 8 1006.0 1005.7 9.6
21/03:30am 20.7 20.4 13.4 63 4.2 SW 7 11 4 6 1005.6 1005.3 9.6
21/03:00am 20.8 20.0 13.0 61 4.5 SW 9 24 5 13 1005.1 1004.8 9.6
21/02:30am 20.9 17.8 12.1 57 4.9 S 20 32 11 17 1004.6 1004.3 9.6
21/02:00am 21.1 17.6 12.3 57 5.0 SSE 22 39 12 21 1004.1 1003.8 9.6
21/01:35am 21.3 16.8 12.7 58 4.9 SSE 28 50 15 27 1003.8 1003.5 9.6
21/01:30am 21.2 16.7 12.6 58 4.9 SSE 28 41 15 22 1003.7 1003.4 9.6
21/01:00am 21.4 17.3 12.8 58 4.9 SSE 26 44 14 24 1003.4 1003.1 9.6
21/12:33am 21.9 17.9 14.0 61 4.6 SSE 28 46 15 25 1003.0 1002.7 9.6
21/12:30am 21.9 18.1 14.8 64 4.2 SSE 28 43 15 23 1002.9 1002.6 9.6
21/12:00am 22.1 18.9 16.4 70 3.5 SSE 28 37 15 20 1002.2 1001.8 9.6
 
Date/Time
EDT
Temp
°C
App
Temp
°C
Dew
Point
°C
Rel
Hum
%
Delta-T
°C
Wind Press
QNH
hPa
Press
MSL
hPa
Rain since
9am
mm
Dir  Spd
km/h
Gust
km/h
Spd
kts
Gust
kts
20/11:30pm 22.2 20.3 16.7 71 3.4 SSE 22 37 12 20 1001.8 1001.4 9.6
20/11:00pm 22.0 19.4 16.9 73 3.1 SSE 26 37 14 20 1001.3 1000.9 9.6
20/10:30pm 21.7 18.1 17.3 76 2.7 SSE 32 50 17 27 1000.7 1000.3 9.6
20/10:01pm 22.0 18.5 17.8 77 2.6 S 33 52 18 28 999.7 999.3 9.6
20/10:00pm 22.0 18.5 18.0 78 2.5 S 33 46 18 25 999.7 999.3 9.6
20/09:46pm 22.1 19.8 18.5 80 2.3 SSE 28 46 15 25 999.6 999.2 9.6
20/09:30pm 22.9 20.2 19.3 80 2.3 S 32 48 17 26 998.6 998.3 9.6
20/09:21pm 23.5 22.2 19.8 80 2.4 SSE 26 54 14 29 998.3 998.0 9.6
20/09:00pm 25.1 28.7 23.0 88 1.4 WSW 9 13 5 7 997.0 996.7 9.6
20/08:30pm 25.5 28.5 23.4 88 1.4 W 13 17 7 9 995.6 995.3 9.6
20/08:00pm 25.9 30.0 23.9 89 1.4 WNW 9 13 5 7 995.2 994.9 9.6
20/07:30pm 26.7 31.1 24.4 87 1.6 WNW 9 13 5 7 995.1 994.8 9.6
20/07:00pm 27.2 30.4 23.7 81 2.4 WSW 13 22 7 12 994.8 994.5 9.6
20/06:30pm 29.3 32.1 23.0 69 4.3 NNW 13 24 7 13 993.3 993.0 9.0
20/06:00pm 29.5 32.7 23.0 68 4.5 N 11 15 6 8 992.9 992.6 9.0
20/05:30pm 30.1 34.0 23.0 65 4.9 N 7 13 4 7 992.8 992.5 9.0
20/05:00pm 29.2 33.7 23.6 72 3.9 NW 6 9 3 5 993.2 992.9 9.0
20/04:30pm 28.6 32.3 23.3 73 3.6 NW 9 13 5 7 993.1 992.8 9.0
20/04:00pm 28.3 31.9 23.0 73 3.6 NW 9 13 5 7 993.3 993.0 9.0
20/03:30pm 28.4 30.6 22.6 71 3.9 N 15 24 8 13 993.8 993.5 9.0
20/03:00pm 28.5 30.8 22.7 71 4.0 NNW 15 26 8 14 994.5 994.2 9.0
20/02:30pm 27.4 29.6 22.6 75 3.3 NNW 15 30 8 16 994.9 994.6 9.0
20/02:00pm 26.1 27.6 22.0 78 2.8 N 17 24 9 13 995.5 995.2 9.0
20/01:30pm 24.2 26.4 21.9 87 1.5 N 13 20 7 11 996.0 995.7 9.0
20/01:00pm 22.1 23.8 20.9 93 0.8 NNE 13 17 7 9 996.9 996.6 9.0
20/12:43pm 21.1 23.5 20.1 94 0.6 NNW 7 11 4 6 997.7 997.4 9.0
20/12:30pm 21.0 23.3 19.5 91 1.0 NNW 6 9 3 5 997.8 997.5 8.8
20/12:00pm 21.0 23.0 19.1 89 1.2 NW 7 9 4 5 998.6 998.3 6.0
20/11:34am 21.5 23.3 18.7 84 1.8 WNW 7 13 4 7 998.8 998.5 0.8
20/11:30am 21.5 22.8 18.5 83 1.9 WNW 9 13 5 7 999.0 998.7 0.6
20/11:00am 22.9 23.0 17.4 71 3.4 NNW 13 20 7 11 998.8 998.5 0.0
20/10:30am 23.8 24.1 17.1 66 4.1 N 11 20 6 11 998.7 998.4 0.0
20/10:00am 23.2 23.2 17.2 69 3.7 NNW 13 20 7 11 999.3 998.9 0.0
20/09:30am 22.7 21.2 16.3 67 3.9 N 19 28 10 15 1000.3 999.9 0.0
20/09:00am 22.6 22.0 16.6 69 3.7 N 15 22 8 12 1001.2 1000.8 0.0
20/08:30am 21.5 20.6 15.8 70 3.4 N 15 24 8 13 1001.6 1001.2 0.0
20/08:00am 21.3 20.1 16.0 72 3.2 N 17 28 9 15 1002.4 1002.1 0.0
20/07:30am 21.6 21.2 16.1 71 3.3 N 13 24 7 13 1002.9 1002.6 0.0
20/07:00am 20.2 20.6 16.4 79 2.3 N 9 13 5 7 1003.4 1003.1 0.0
20/06:30am 19.7 20.7 16.3 81 2.0 WNW 6 9 3 5 1003.8 1003.5 0.0
20/06:00am 19.7 21.8 16.2 80 2.1 CALM 0 0 0 0 1003.5 1003.2 0.0
20/05:30am 19.7 21.8 16.2 80 2.1 CALM 0 0 0 0 1004.4 1004.1 0.0
20/05:00am 19.7 20.7 16.3 81 2.1 WSW 6 7 3 4 1004.7 1004.4 0.0
20/04:30am 19.9 22.1 16.5 81 2.1 CALM 0 0 0 0 1005.0 1004.7 0.0
20/04:00am 20.0 22.2 16.6 81 2.1 CALM 0 0 0 0 1005.9 1005.6 0.0
20/03:30am 20.0 22.3 16.8 82 1.9 CALM 0 0 0 0 1006.4 1006.1 0.0
20/03:00am 20.1 22.0 16.7 81 2.1 NE 2 7 1 4 1006.8 1006.5 0.0
20/02:30am 20.2 22.5 16.8 81 2.1 CALM 0 0 0 0 1007.8 1007.5 0.0
20/02:00am 20.0 21.6 16.8 82 1.9 NE 4 7 2 4 1008.2 1007.9 0.0
20/01:30am 20.0 20.9 16.6 81 2.1 ENE 7 9 4 5 1008.9 1008.6 0.0
20/01:00am 20.2 20.6 16.4 79 2.3 NE 9 15 5 8 1009.7 1009.4 0.0
20/12:30am 20.3 19.9 16.3 78 2.4 NE 13 19 7 10 1010.1 1009.8 0.0
20/12:00am 20.5 19.5 15.7 74 2.9 NNE 15 20 8 11 1010.4 1010.1 0.0
 
Date/Time
EDT
Temp
°C
App
Temp
°C
Dew
Point
°C
Rel
Hum
%
Delta-T
°C
Wind Press
QNH
hPa
Press
MSL
hPa
Rain since
9am
mm
Dir  Spd
km/h
Gust
km/h
Spd
kts
Gust
kts
19/11:30pm 20.8 20.5 15.4 71 3.2 NNE 11 17 6 9 1010.7 1010.4 0.0
19/11:00pm 20.9 20.1 15.0 69 3.5 NE 13 19 7 10 1011.0 1010.7 0.0
19/10:30pm 21.0 20.1 14.9 68 3.6 NNE 13 20 7 11 1011.5 1011.2 0.0
19/10:00pm 21.1 19.4 14.7 67 3.8 NNE 17 26 9 14 1011.4 1011.1 0.0
19/09:30pm 21.1 20.8 14.5 66 3.9 NE 9 15 5 8 1011.6 1011.3 0.0

Latest Capital City Observations: Canberra | Sydney | Melbourne | Brisbane | Adelaide | Perth | Hobart | Darwin

Other Formats:

Comma delimited format used in spreadsheet applications
http://www.bom.gov.au/fwo/IDN60901/IDN60901.95761.axf

JavaScript Object Notation format (JSON) in row-major order
http://www.bom.gov.au/fwo/IDN60901/IDN60901.95761.json